createdAt,value
2023-04-30T00:00:08.837Z,42.43
2023-04-30T00:02:36.405Z,41.89
2023-04-30T00:05:03.796Z,42.46
2023-04-30T00:07:31.289Z,42.00
2023-04-30T00:09:58.460Z,42.94
2023-04-30T00:12:27.116Z,42.46
2023-04-30T00:14:54.262Z,42.91
2023-04-30T00:17:21.423Z,42.59
2023-04-30T00:19:48.543Z,42.36
2023-04-30T00:22:15.706Z,41.69
2023-04-30T00:24:42.962Z,41.94
2023-04-30T00:27:10.101Z,42.14
2023-04-30T00:29:38.955Z,41.83
2023-04-30T00:32:06.298Z,42.24
2023-04-30T00:34:33.601Z,42.26
2023-04-30T00:37:00.880Z,42.21
2023-04-30T00:39:27.972Z,41.99
2023-04-30T00:41:55.662Z,41.96
2023-04-30T00:44:22.857Z,41.55
2023-04-30T00:46:51.473Z,41.74
2023-04-30T00:49:18.619Z,41.71
2023-04-30T00:51:45.996Z,42.02
2023-04-30T00:54:13.381Z,41.42
2023-04-30T00:56:41.839Z,41.68
2023-04-30T00:59:09.180Z,41.67
2023-04-30T01:01:36.802Z,42.47
2023-04-30T01:04:06.173Z,42.40
2023-04-30T01:06:34.071Z,42.06
2023-04-30T01:09:01.670Z,42.16
2023-04-30T01:11:52.335Z,42.32
2023-04-30T01:14:28.539Z,42.63
2023-04-30T01:17:05.721Z,42.62
2023-04-30T01:19:42.437Z,42.12
2023-04-30T01:22:16.795Z,42.16
2023-04-30T01:25:06.769Z,42.42
2023-04-30T01:28:01.214Z,42.61
2023-04-30T01:30:30.313Z,42.88
2023-04-30T01:32:57.958Z,42.89
2023-04-30T01:35:56.320Z,42.59
2023-04-30T01:38:39.943Z,42.88
2023-04-30T01:41:17.151Z,43.29
2023-04-30T01:43:55.777Z,43.12
2023-04-30T01:46:29.794Z,42.88
2023-04-30T01:49:08.744Z,43.29
2023-04-30T01:51:42.167Z,43.16
2023-04-30T01:54:22.896Z,43.35
2023-04-30T01:57:01.667Z,42.96
2023-04-30T01:59:32.542Z,43.41
2023-04-30T02:01:59.918Z,43.41
2023-04-30T02:04:27.303Z,44.12
2023-04-30T02:06:54.929Z,43.88
2023-04-30T02:09:22.235Z,44.20
2023-04-30T02:11:49.377Z,44.20
2023-04-30T02:14:16.476Z,43.94
2023-04-30T02:16:45.375Z,43.54
2023-04-30T02:19:12.704Z,44.11
2023-04-30T02:21:39.956Z,44.18
2023-04-30T02:24:07.537Z,44.35
2023-04-30T02:26:34.780Z,44.23
2023-04-30T02:29:01.983Z,44.64
2023-04-30T02:31:29.213Z,43.79
2023-04-30T02:33:57.755Z,52.08
2023-04-30T02:36:25.006Z,51.05
2023-04-30T02:38:52.016Z,49.14
2023-04-30T02:41:19.174Z,50.53
2023-04-30T02:43:46.333Z,48.64
2023-04-30T02:46:13.479Z,44.78
2023-04-30T02:48:40.796Z,47.37
2023-04-30T02:51:09.304Z,44.80
2023-04-30T02:53:36.331Z,46.06
2023-04-30T02:56:03.736Z,46.23
2023-04-30T02:58:30.890Z,44.63
2023-04-30T03:00:57.971Z,43.54
2023-04-30T03:03:25.134Z,44.55
2023-04-30T03:05:52.465Z,44.75
2023-04-30T03:08:21.027Z,43.24
2023-04-30T03:10:48.201Z,43.58
2023-04-30T03:13:15.308Z,43.97
2023-04-30T03:15:42.468Z,43.16
2023-04-30T03:18:11.161Z,43.18
2023-04-30T03:20:38.416Z,42.71
2023-04-30T03:23:05.507Z,42.74
2023-04-30T03:25:34.057Z,42.70
2023-04-30T03:28:01.132Z,42.61
2023-04-30T03:30:28.320Z,42.64
2023-04-30T03:32:55.443Z,42.33
2023-04-30T03:35:22.796Z,42.58
2023-04-30T03:37:49.875Z,43.54
2023-04-30T03:40:17.013Z,42.47
2023-04-30T03:42:45.499Z,42.35
2023-04-30T03:45:12.647Z,42.43
2023-04-30T03:47:39.813Z,41.29
2023-04-30T03:50:08.967Z,41.34
2023-04-30T03:52:36.318Z,42.73
2023-04-30T03:55:03.676Z,41.97
2023-04-30T03:57:31.619Z,42.75
2023-04-30T04:00:00.282Z,42.81
2023-04-30T04:02:27.488Z,42.34
2023-04-30T04:04:54.795Z,42.39
2023-04-30T04:07:21.868Z,42.23
2023-04-30T04:09:49.045Z,42.14
2023-04-30T04:12:16.239Z,42.06
2023-04-30T04:14:43.519Z,41.86
2023-04-30T04:17:12.121Z,42.45
2023-04-30T04:19:39.199Z,42.17
2023-04-30T04:22:06.466Z,42.37
2023-04-30T04:24:33.920Z,42.33
2023-04-30T04:27:01.194Z,42.28
2023-04-30T04:29:28.326Z,41.83
2023-04-30T04:31:55.597Z,41.74
2023-04-30T04:34:24.481Z,42.13
2023-04-30T04:36:51.659Z,42.00
2023-04-30T04:39:18.777Z,41.97
2023-04-30T04:41:45.997Z,41.65
2023-04-30T04:44:13.080Z,42.10
2023-04-30T04:46:40.245Z,41.79
2023-04-30T04:49:07.420Z,41.60
2023-04-30T04:51:36.212Z,41.02
2023-04-30T04:54:03.436Z,41.59
2023-04-30T04:56:30.536Z,41.51
2023-04-30T04:58:59.162Z,40.55
2023-04-30T05:01:26.326Z,41.11
2023-04-30T05:03:53.772Z,41.22
2023-04-30T05:06:21.061Z,41.32
2023-04-30T05:08:49.737Z,41.09
2023-04-30T05:11:16.951Z,41.16
2023-04-30T05:13:44.075Z,40.84
2023-04-30T05:16:11.234Z,40.66
2023-04-30T05:18:38.381Z,40.88
2023-04-30T05:21:05.536Z,40.28
2023-04-30T05:23:32.619Z,40.42
2023-04-30T05:26:01.195Z,40.56
2023-04-30T05:28:28.395Z,40.14
2023-04-30T05:30:55.580Z,40.39
2023-04-30T05:33:22.819Z,40.19
2023-04-30T05:35:49.979Z,39.73
2023-04-30T05:38:17.057Z,39.63
2023-04-30T05:40:44.191Z,39.40
2023-04-30T05:43:12.739Z,39.64
2023-04-30T05:45:39.900Z,39.34
2023-04-30T05:48:07.117Z,39.47
2023-04-30T05:50:34.336Z,39.64
2023-04-30T05:53:01.495Z,39.30
2023-04-30T05:55:28.807Z,39.38
2023-04-30T05:57:55.937Z,39.45
2023-04-30T06:00:24.717Z,39.39
2023-04-30T06:02:51.919Z,39.63
2023-04-30T06:05:19.115Z,39.47
2023-04-30T06:07:46.287Z,39.56
2023-04-30T06:10:13.552Z,39.86
2023-04-30T06:12:40.811Z,39.38
2023-04-30T06:15:08.608Z,39.43
2023-04-30T06:17:37.422Z,38.88
2023-04-30T06:20:05.616Z,39.22
2023-04-30T06:22:32.801Z,39.38
2023-04-30T06:25:00.080Z,39.53
2023-04-30T06:27:27.259Z,39.12
2023-04-30T06:29:54.651Z,39.28
2023-04-30T06:32:21.959Z,39.07
2023-04-30T06:34:50.759Z,38.61
2023-04-30T06:37:17.979Z,38.96
2023-04-30T06:39:45.097Z,39.25
2023-04-30T06:42:12.220Z,38.69
2023-04-30T06:44:39.438Z,38.98
2023-04-30T06:47:06.618Z,39.01
2023-04-30T06:49:33.652Z,39.01
2023-04-30T06:52:02.297Z,38.62
2023-04-30T06:54:29.420Z,39.20
2023-04-30T06:56:56.525Z,39.59
2023-04-30T06:59:23.809Z,39.14
2023-04-30T07:01:51.003Z,39.28
2023-04-30T07:04:18.190Z,39.02
2023-04-30T07:06:45.427Z,39.31
2023-04-30T07:09:14.149Z,39.53
2023-04-30T07:11:41.266Z,38.95
2023-04-30T07:14:08.428Z,39.52
2023-04-30T07:16:35.610Z,39.25
2023-04-30T07:19:03.022Z,39.13
2023-04-30T07:21:30.248Z,39.02
2023-04-30T07:23:57.427Z,39.33
2023-04-30T07:26:26.142Z,39.57
2023-04-30T07:28:53.205Z,39.46
2023-04-30T07:31:20.421Z,39.81
2023-04-30T07:33:47.608Z,39.67
2023-04-30T07:36:14.780Z,39.90
2023-04-30T07:38:42.059Z,39.74
2023-04-30T07:41:09.201Z,39.80
2023-04-30T07:43:37.760Z,40.06
2023-04-30T07:46:05.121Z,40.16
2023-04-30T07:48:32.261Z,39.96
2023-04-30T07:50:59.410Z,40.02
2023-04-30T07:53:26.648Z,38.86
2023-04-30T07:55:53.851Z,39.86
2023-04-30T07:58:21.009Z,39.79
2023-04-30T08:00:49.736Z,39.87
2023-04-30T08:03:17.010Z,39.93
2023-04-30T08:05:44.457Z,39.61
2023-04-30T08:08:11.571Z,39.28
2023-04-30T08:10:39.228Z,38.84
2023-04-30T08:13:06.541Z,39.20
2023-04-30T08:15:34.333Z,39.30
2023-04-30T08:18:03.608Z,39.05
2023-04-30T08:20:30.895Z,39.56
2023-04-30T08:22:58.103Z,39.21
2023-04-30T08:25:25.419Z,39.76
2023-04-30T08:27:52.568Z,39.17
2023-04-30T08:30:19.902Z,39.54
2023-04-30T08:32:47.570Z,39.47
2023-04-30T08:35:16.193Z,39.25
2023-04-30T08:37:43.605Z,39.61
2023-04-30T08:40:11.465Z,38.72
2023-04-30T08:42:46.281Z,39.25
2023-04-30T08:45:13.713Z,39.31
2023-04-30T08:47:41.781Z,39.44
2023-04-30T08:50:10.327Z,39.58
2023-04-30T08:52:40.357Z,39.48
2023-04-30T08:55:09.902Z,39.10
2023-04-30T08:57:37.763Z,39.48
2023-04-30T09:00:06.430Z,39.09
2023-04-30T09:02:34.295Z,38.89
2023-04-30T09:05:01.440Z,39.44
2023-04-30T09:07:34.064Z,39.37
2023-04-30T09:10:02.560Z,39.46
2023-04-30T09:12:29.880Z,39.13
2023-04-30T09:15:02.689Z,39.54
2023-04-30T09:17:31.122Z,39.70
2023-04-30T09:20:08.350Z,39.49
2023-04-30T09:22:37.338Z,39.88
2023-04-30T09:25:07.179Z,40.22
2023-04-30T09:27:34.306Z,40.10
2023-04-30T09:30:01.687Z,40.49
2023-04-30T09:32:28.851Z,40.56
2023-04-30T09:34:56.506Z,40.34
2023-04-30T09:37:36.021Z,40.20
2023-04-30T09:40:06.451Z,39.41
2023-04-30T09:42:33.862Z,39.82
2023-04-30T09:45:01.047Z,40.00
2023-04-30T09:47:30.727Z,40.28
2023-04-30T09:50:00.778Z,39.73
2023-04-30T09:52:29.138Z,40.89
2023-04-30T09:54:57.200Z,40.36
2023-04-30T09:57:30.658Z,40.94
2023-04-30T10:00:00.319Z,40.63
2023-04-30T10:02:28.496Z,40.73
2023-04-30T10:04:58.351Z,39.58
2023-04-30T10:07:34.476Z,41.15
2023-04-30T10:10:07.751Z,41.13
2023-04-30T10:12:43.295Z,41.36
2023-04-30T10:15:16.267Z,40.61
2023-04-30T10:17:51.723Z,40.85
2023-04-30T10:20:22.004Z,40.45
2023-04-30T10:22:50.320Z,40.85
2023-04-30T10:25:18.199Z,39.85
2023-04-30T10:27:46.833Z,40.33
2023-04-30T10:30:15.522Z,40.04
2023-04-30T10:33:07.126Z,39.82
2023-04-30T10:35:45.487Z,40.03
2023-04-30T10:38:22.387Z,39.72
2023-04-30T10:40:49.678Z,40.04
2023-04-30T10:43:19.597Z,39.88
2023-04-30T10:45:46.939Z,40.28
2023-04-30T10:48:16.567Z,40.78
2023-04-30T10:50:46.277Z,40.76
2023-04-30T10:53:14.840Z,41.04
2023-04-30T10:55:54.551Z,39.47
2023-04-30T10:58:28.115Z,39.81
2023-04-30T11:01:04.315Z,41.35
2023-04-30T11:03:33.046Z,40.51
2023-04-30T11:06:01.588Z,41.05
2023-04-30T11:08:35.947Z,40.78
2023-04-30T11:11:03.981Z,41.38
2023-04-30T11:13:41.882Z,40.93
2023-04-30T11:16:09.894Z,40.00
2023-04-30T11:18:43.942Z,38.30
2023-04-30T11:21:11.649Z,40.49
2023-04-30T11:23:42.383Z,39.04
2023-04-30T11:26:10.826Z,40.61
2023-04-30T11:28:50.197Z,38.46
2023-04-30T11:31:17.597Z,40.56
2023-04-30T11:33:44.844Z,39.32
2023-04-30T11:36:14.319Z,39.90
2023-04-30T11:38:42.221Z,39.86
2023-04-30T11:41:13.042Z,40.11
2023-04-30T11:43:41.651Z,39.92
2023-04-30T11:46:11.521Z,39.78
2023-04-30T11:48:40.270Z,39.95
2023-04-30T11:51:16.580Z,40.55
2023-04-30T11:53:47.044Z,40.23
2023-04-30T11:56:14.222Z,39.14
2023-04-30T11:58:42.792Z,37.80
2023-04-30T12:01:10.402Z,38.20
2023-04-30T12:03:41.823Z,38.00
2023-04-30T12:06:10.934Z,37.96
2023-04-30T12:08:38.182Z,39.60
2023-04-30T12:11:05.465Z,39.15
2023-04-30T12:13:32.568Z,38.62
2023-04-30T12:16:01.964Z,40.55
2023-04-30T12:18:29.164Z,39.51
2023-04-30T12:20:56.423Z,40.50
2023-04-30T12:23:23.923Z,40.65
2023-04-30T12:25:51.081Z,37.44
2023-04-30T12:28:18.269Z,40.98
2023-04-30T12:30:45.442Z,40.65
2023-04-30T12:33:13.951Z,40.05
2023-04-30T12:35:43.499Z,40.40
2023-04-30T12:38:10.867Z,39.47
2023-04-30T12:40:38.422Z,39.20
2023-04-30T12:43:07.812Z,40.06
2023-04-30T12:45:49.163Z,39.32
2023-04-30T12:48:19.219Z,40.64
2023-04-30T12:50:54.402Z,40.02
2023-04-30T12:53:22.602Z,40.70
2023-04-30T12:56:12.385Z,39.77
2023-04-30T12:58:40.105Z,39.71
2023-04-30T13:01:12.055Z,39.92
2023-04-30T13:03:41.172Z,39.04
2023-04-30T13:06:08.613Z,39.60
2023-04-30T13:08:45.781Z,40.16
2023-04-30T13:11:17.298Z,37.34
2023-04-30T13:13:44.488Z,40.18
2023-04-30T13:16:11.744Z,39.76
2023-04-30T13:18:40.391Z,38.80
2023-04-30T13:21:07.476Z,39.66
2023-04-30T13:23:44.498Z,40.28
2023-04-30T13:26:18.937Z,39.27
2023-04-30T13:28:46.119Z,39.49
2023-04-30T13:31:13.361Z,40.11
2023-04-30T13:33:42.105Z,40.18
2023-04-30T13:36:09.502Z,39.79
2023-04-30T13:38:36.601Z,39.48
2023-04-30T13:41:03.767Z,39.38
2023-04-30T13:43:30.920Z,39.22
2023-04-30T13:45:58.393Z,38.83
2023-04-30T13:48:25.619Z,39.41
2023-04-30T13:50:54.816Z,39.32
2023-04-30T13:53:22.162Z,39.21
2023-04-30T13:55:49.395Z,39.32
2023-04-30T13:58:17.381Z,39.14
2023-04-30T14:00:44.463Z,39.52
2023-04-30T14:03:11.932Z,39.65
2023-04-30T14:05:39.533Z,39.41
2023-04-30T14:08:08.159Z,39.72
2023-04-30T14:10:35.286Z,39.56
2023-04-30T14:13:02.442Z,39.61
2023-04-30T14:15:30.183Z,37.91
2023-04-30T14:17:57.320Z,38.69
2023-04-30T14:20:24.808Z,38.75
2023-04-30T14:22:51.900Z,39.41
2023-04-30T14:25:20.628Z,39.26
2023-04-30T14:27:48.406Z,39.66
2023-04-30T14:30:15.809Z,40.07
2023-04-30T14:32:43.134Z,39.97
2023-04-30T14:35:10.481Z,38.84
2023-04-30T14:37:37.722Z,39.82
2023-04-30T14:40:06.229Z,38.50
2023-04-30T14:42:34.756Z,39.33
2023-04-30T14:45:02.209Z,39.38
2023-04-30T14:47:29.678Z,39.63
2023-04-30T14:49:57.206Z,39.85
2023-04-30T14:52:24.721Z,40.09
2023-04-30T14:54:51.947Z,39.85
2023-04-30T14:57:19.383Z,39.64
2023-04-30T14:59:48.105Z,39.33
2023-04-30T15:02:15.264Z,39.49
2023-04-30T15:04:42.464Z,39.67
2023-04-30T15:07:09.525Z,39.50
2023-04-30T15:09:36.799Z,38.59
2023-04-30T15:12:04.323Z,39.48
2023-04-30T15:14:31.642Z,39.96
2023-04-30T15:17:00.383Z,39.55
2023-04-30T15:19:27.602Z,39.03
2023-04-30T15:21:54.682Z,39.19
2023-04-30T15:24:21.841Z,39.38
2023-04-30T15:26:49.100Z,39.64
2023-04-30T15:29:16.301Z,39.27
2023-04-30T15:31:44.855Z,39.51
2023-04-30T15:34:13.624Z,39.36
2023-04-30T15:36:40.863Z,39.47
2023-04-30T15:39:08.959Z,39.25
2023-04-30T15:41:36.108Z,40.08
2023-04-30T15:44:03.322Z,39.73
2023-04-30T15:46:30.584Z,39.00
2023-04-30T15:48:57.941Z,39.68
2023-04-30T15:51:26.566Z,38.84
2023-04-30T15:53:53.721Z,38.80
2023-04-30T15:56:20.958Z,39.28
2023-04-30T15:58:48.069Z,39.46
2023-04-30T16:01:15.132Z,39.37
2023-04-30T16:03:42.376Z,39.09
2023-04-30T16:06:10.156Z,38.31
2023-04-30T16:08:39.144Z,39.47
2023-04-30T16:11:06.517Z,39.70
2023-04-30T16:13:33.600Z,39.25
2023-04-30T16:16:00.927Z,39.51
2023-04-30T16:18:28.428Z,39.35
2023-04-30T16:20:56.169Z,39.17
2023-04-30T16:23:23.847Z,39.17
2023-04-30T16:25:52.550Z,38.66
2023-04-30T16:28:19.668Z,37.96
2023-04-30T16:30:46.902Z,37.84
2023-04-30T16:33:14.459Z,37.78
2023-04-30T16:35:41.619Z,38.96
2023-04-30T16:38:08.791Z,40.11
2023-04-30T16:40:36.040Z,39.88
2023-04-30T16:43:04.539Z,39.64
2023-04-30T16:45:31.763Z,40.81
2023-04-30T16:47:59.192Z,41.76
2023-04-30T16:50:26.461Z,41.62
2023-04-30T16:52:53.665Z,42.10
2023-04-30T16:55:21.138Z,41.98
2023-04-30T16:57:48.480Z,42.41
2023-04-30T17:00:17.419Z,42.18
2023-04-30T17:02:44.669Z,42.16
2023-04-30T17:05:12.321Z,42.53
2023-04-30T17:07:39.467Z,43.03
2023-04-30T17:10:07.982Z,42.80
2023-04-30T17:12:35.135Z,42.40
2023-04-30T17:15:02.399Z,43.44
2023-04-30T17:17:31.029Z,41.46
2023-04-30T17:19:58.304Z,42.22
2023-04-30T17:22:25.498Z,42.85
2023-04-30T17:24:52.841Z,45.22
2023-04-30T17:27:20.019Z,44.53
2023-04-30T17:29:47.136Z,40.82
2023-04-30T17:32:14.244Z,41.03
2023-04-30T17:34:42.959Z,40.63
2023-04-30T17:37:10.159Z,40.20
2023-04-30T17:39:37.262Z,40.03
2023-04-30T17:42:04.530Z,40.84
2023-04-30T17:44:31.664Z,41.08
2023-04-30T17:46:58.743Z,41.72
2023-04-30T17:49:25.931Z,40.96
2023-04-30T17:51:54.917Z,41.36
2023-04-30T17:54:22.161Z,41.77
2023-04-30T17:56:49.427Z,41.06
2023-04-30T17:59:16.844Z,41.73
2023-04-30T18:01:44.044Z,42.05
2023-04-30T18:04:16.489Z,41.41
2023-04-30T18:06:43.884Z,42.08
2023-04-30T18:09:12.472Z,42.00
2023-04-30T18:11:39.867Z,42.28
2023-04-30T18:14:07.033Z,42.32
2023-04-30T18:16:37.351Z,42.08
2023-04-30T18:19:06.624Z,42.40
2023-04-30T18:21:33.761Z,42.40
2023-04-30T18:24:00.924Z,42.41
2023-04-30T18:26:29.591Z,42.57
2023-04-30T18:28:56.738Z,42.11
2023-04-30T18:31:23.959Z,41.96
2023-04-30T18:33:51.082Z,41.70
2023-04-30T18:36:18.320Z,41.43
2023-04-30T18:38:45.575Z,41.07
2023-04-30T18:41:12.819Z,41.91
2023-04-30T18:43:41.363Z,41.53
2023-04-30T18:46:08.635Z,41.70
2023-04-30T18:48:35.841Z,42.03
2023-04-30T18:51:03.354Z,41.75
2023-04-30T18:53:30.662Z,41.58
2023-04-30T18:55:57.832Z,42.47
2023-04-30T18:58:25.134Z,42.22
2023-04-30T19:00:56.819Z,42.06
2023-04-30T19:03:24.173Z,42.85
2023-04-30T19:05:56.420Z,42.27
2023-04-30T19:08:23.541Z,42.29
2023-04-30T19:10:50.752Z,42.58
2023-04-30T19:13:18.041Z,43.31
2023-04-30T19:15:45.549Z,42.59
2023-04-30T19:18:14.214Z,43.00
2023-04-30T19:20:41.360Z,43.28
2023-04-30T19:23:08.702Z,43.50
2023-04-30T19:25:37.628Z,43.28
2023-04-30T19:28:05.119Z,44.27
2023-04-30T19:30:32.190Z,42.84
2023-04-30T19:33:02.759Z,43.01
2023-04-30T19:35:32.201Z,42.32
2023-04-30T19:37:59.438Z,43.08
2023-04-30T19:40:26.464Z,43.01
2023-04-30T19:42:54.851Z,43.53
2023-04-30T19:45:22.165Z,44.13
2023-04-30T19:47:49.424Z,44.09
2023-04-30T19:50:16.981Z,44.05
2023-04-30T19:52:45.902Z,44.71
2023-04-30T19:55:13.020Z,44.98
2023-04-30T19:57:40.468Z,45.01
2023-04-30T20:00:10.062Z,45.57
2023-04-30T20:02:37.271Z,45.35
2023-04-30T20:05:07.066Z,45.08
2023-04-30T20:07:35.163Z,45.03
2023-04-30T20:10:04.018Z,45.09
2023-04-30T20:12:31.647Z,45.47
2023-04-30T20:14:58.910Z,45.49
2023-04-30T20:17:26.161Z,45.26
2023-04-30T20:19:53.808Z,45.35
2023-04-30T20:22:21.223Z,45.26
2023-04-30T20:24:49.104Z,45.65
2023-04-30T20:27:17.677Z,45.38
2023-04-30T20:29:44.780Z,45.61
2023-04-30T20:32:12.084Z,45.68
2023-04-30T20:34:39.483Z,45.34
2023-04-30T20:37:06.698Z,49.20
2023-04-30T20:39:33.950Z,45.45
2023-04-30T20:42:01.175Z,45.94
2023-04-30T20:44:29.861Z,46.18
2023-04-30T20:46:57.060Z,46.34
2023-04-30T20:49:24.267Z,45.82
2023-04-30T20:51:51.465Z,46.21
2023-04-30T20:54:18.690Z,46.78
2023-04-30T20:56:45.830Z,46.24
2023-04-30T20:59:13.392Z,46.04
2023-04-30T21:01:41.961Z,46.38
2023-04-30T21:04:09.290Z,46.59
2023-04-30T21:06:36.372Z,46.71
2023-04-30T21:09:03.587Z,46.58
2023-04-30T21:11:30.708Z,46.80
2023-04-30T21:13:57.910Z,46.02
2023-04-30T21:16:25.291Z,46.46
2023-04-30T21:18:53.908Z,46.31
2023-04-30T21:21:20.973Z,46.36
2023-04-30T21:23:48.457Z,46.32
2023-04-30T21:26:15.892Z,46.02
2023-04-30T21:28:43.050Z,46.11
2023-04-30T21:31:10.303Z,45.73
2023-04-30T21:33:38.267Z,45.45
2023-04-30T21:36:07.670Z,45.01
2023-04-30T21:38:34.788Z,45.26
2023-04-30T21:41:02.036Z,45.76
2023-04-30T21:43:29.126Z,45.89
2023-04-30T21:46:02.072Z,45.82
2023-04-30T21:48:29.197Z,46.81
2023-04-30T21:50:56.313Z,46.40
2023-04-30T21:53:25.235Z,46.10
2023-04-30T21:55:52.389Z,46.62
2023-04-30T21:58:19.566Z,46.25
2023-04-30T22:00:46.740Z,46.19
2023-04-30T22:03:13.969Z,46.40
2023-04-30T22:05:41.174Z,46.35
2023-04-30T22:08:08.387Z,47.14
2023-04-30T22:10:37.068Z,47.25
2023-04-30T22:13:04.161Z,47.27
2023-04-30T22:15:40.711Z,47.62
2023-04-30T22:18:14.520Z,47.56
2023-04-30T22:20:41.760Z,46.98
2023-04-30T22:23:09.002Z,46.53
2023-04-30T22:25:37.586Z,46.56
2023-04-30T22:28:05.199Z,45.90
2023-04-30T22:30:32.421Z,45.96
2023-04-30T22:32:59.715Z,46.08
2023-04-30T22:35:27.761Z,46.37
2023-04-30T22:37:54.992Z,47.02
2023-04-30T22:40:23.133Z,47.55
2023-04-30T22:42:51.942Z,47.21
2023-04-30T22:45:19.394Z,47.56
2023-04-30T22:47:46.860Z,47.97
2023-04-30T22:50:14.157Z,47.73
2023-04-30T22:52:41.429Z,46.96
2023-04-30T22:55:09.342Z,47.37
2023-04-30T22:57:36.464Z,47.22
2023-04-30T23:00:06.256Z,48.09
2023-04-30T23:02:33.557Z,48.00
2023-04-30T23:05:00.673Z,48.26
2023-04-30T23:07:27.721Z,48.22
2023-04-30T23:09:54.993Z,48.43
2023-04-30T23:12:22.487Z,52.73
2023-04-30T23:14:49.782Z,51.35
2023-04-30T23:17:18.405Z,49.79
2023-04-30T23:19:45.620Z,49.57
2023-04-30T23:22:12.742Z,49.22
2023-04-30T23:24:39.966Z,47.38
2023-04-30T23:27:07.305Z,47.60
2023-04-30T23:29:36.159Z,48.16
2023-04-30T23:32:03.951Z,47.13
2023-04-30T23:34:32.536Z,46.90
2023-04-30T23:36:59.768Z,47.10
2023-04-30T23:39:27.148Z,46.57
2023-04-30T23:41:54.238Z,46.15
2023-04-30T23:44:21.404Z,46.43
2023-04-30T23:46:48.537Z,46.11
2023-04-30T23:49:15.785Z,45.87
2023-04-30T23:51:44.443Z,45.64
2023-04-30T23:54:11.543Z,45.40
2023-04-30T23:56:38.699Z,45.36
2023-04-30T23:59:05.857Z,45.34
